Time;durP1;ratioP1;P1;durP2;ratioP2;P2;SDS_P1;SDS_P2;PMS_P1;PMS_P2;Temp;Humidity;BMP_temperature;BMP_pressure;BME280_temperature;BME280_humidity;BME280_pressure;Samples;Min_cycle;Max_cycle;Signal;HPM_P1;HPM_P2
2021/10/17 00:01:06;;;;;;;7.50;5.57;;;12.80;87.00;;;;;;5037969;28;20141;-78
2021/10/17 00:03:31;;;;;;;7.00;5.20;;;12.70;87.20;;;;;;5055757;28;20061;-78
2021/10/17 00:05:57;;;;;;;6.45;5.10;;;12.70;87.40;;;;;;5055691;28;20025;-78
2021/10/17 00:08:23;;;;;;;6.68;4.78;;;12.60;87.10;;;;;;5055464;28;20458;-78
2021/10/17 00:10:48;;;;;;;6.55;4.78;;;12.60;88.10;;;;;;5055629;28;20450;-78
2021/10/17 00:13:14;;;;;;;6.40;4.63;;;12.50;88.80;;;;;;5055669;28;20071;-78
2021/10/17 00:15:40;;;;;;;5.93;4.95;;;12.40;89.90;;;;;;5054350;28;20028;-78
2021/10/17 00:18:07;;;;;;;6.72;4.47;;;12.30;90.10;;;;;;5055610;28;20522;-78
2021/10/17 00:20:34;;;;;;;5.20;4.65;;;12.30;90.10;;;;;;5055265;28;20052;-78
2021/10/17 00:23:01;;;;;;;5.30;4.80;;;12.30;88.50;;;;;;5037487;28;20036;-79
2021/10/17 00:25:27;;;;;;;6.72;5.03;;;12.40;88.70;;;;;;5037362;28;20025;-79
2021/10/17 00:27:53;;;;;;;7.78;5.05;;;12.50;88.80;;;;;;5055401;28;20031;-80
2021/10/17 00:30:19;;;;;;;5.85;4.47;;;12.50;88.20;;;;;;5055567;28;20016;-78
2021/10/17 00:32:45;;;;;;;5.22;4.60;;;12.50;88.20;;;;;;5037340;28;20049;-78
2021/10/17 00:35:12;;;;;;;5.45;4.25;;;12.40;88.80;;;;;;5037272;28;20056;-78
2021/10/17 00:37:38;;;;;;;6.25;5.18;;;12.40;88.80;;;;;;5037327;28;20029;-78
2021/10/17 00:40:10;;;;;;;6.00;4.35;;;12.30;89.40;;;;;;5055120;28;20075;-78
2021/10/17 00:42:37;;;;;;;6.07;4.80;;;12.20;90.30;;;;;;5055045;28;20040;-78
2021/10/17 00:45:09;;;;;;;5.55;4.82;;;12.10;90.50;;;;;;5054979;28;20107;-79
2021/10/17 00:47:35;;;;;;;5.90;4.53;;;12.00;90.50;;;;;;5055152;28;20075;-78
2021/10/17 00:50:01;;;;;;;6.07;4.97;;;12.00;90.40;;;;;;5037049;28;20495;-78
2021/10/17 00:52:27;;;;;;;6.30;4.93;;;11.90;90.80;;;;;;5054246;28;20040;-78
2021/10/17 00:54:53;;;;;;;5.50;5.00;;;11.90;91.00;;;;;;5054932;28;20014;-78
2021/10/17 00:57:19;;;;;;;5.25;4.75;;;11.80;91.10;;;;;;5036971;28;20037;-78
2021/10/17 00:59:45;;;;;;;6.05;5.07;;;11.70;91.20;;;;;;5036798;28;20049;-78
2021/10/17 01:02:12;;;;;;;5.53;5.00;;;11.70;91.30;;;;;;5036853;28;20120;-78
2021/10/17 01:04:39;;;;;;;5.53;4.88;;;11.70;91.60;;;;;;5036784;28;20025;-78
2021/10/17 01:07:06;;;;;;;6.15;5.30;;;11.70;91.80;;;;;;5054679;28;20025;-79
2021/10/17 01:09:34;;;;;;;6.45;5.13;;;11.70;91.70;;;;;;5054640;28;20025;-78
2021/10/17 01:12:00;;;;;;;6.85;4.75;;;11.70;91.60;;;;;;5036706;28;20017;-78
2021/10/17 01:14:26;;;;;;;6.88;4.70;;;11.80;91.80;;;;;;5054446;28;20376;-78
2021/10/17 01:16:52;;;;;;;6.55;4.78;;;11.80;91.30;;;;;;5054354;28;20024;-78
2021/10/17 01:19:20;;;;;;;5.78;4.45;;;11.70;91.20;;;;;;5054368;28;20061;-78
2021/10/17 01:21:47;;;;;;;8.35;5.10;;;11.70;91.20;;;;;;5054214;28;20165;-78
2021/10/17 01:24:13;;;;;;;5.90;5.30;;;11.70;91.40;;;;;;5036404;28;20029;-78
2021/10/17 01:26:40;;;;;;;8.35;5.15;;;11.60;91.70;;;;;;5054304;28;20043;-78
2021/10/17 01:29:06;;;;;;;5.25;4.75;;;11.70;91.70;;;;;;5036345;28;20024;-78
2021/10/17 01:31:37;;;;;;;5.72;5.00;;;11.70;91.00;;;;;;5036303;28;20048;-77
2021/10/17 01:34:06;;;;;;;4.93;4.50;;;11.70;91.30;;;;;;5054092;28;20021;-76
2021/10/17 01:36:33;;;;;;;4.97;4.47;;;11.80;90.40;;;;;;5054310;28;20361;-78
2021/10/17 01:38:59;;;;;;;6.03;4.70;;;11.90;90.30;;;;;;5054001;28;20037;-78
2021/10/17 01:41:24;;;;;;;6.53;4.82;;;11.90;90.50;;;;;;5053887;28;20040;-78
2021/10/17 01:43:50;;;;;;;4.60;4.13;;;11.90;90.20;;;;;;5036023;28;20041;-78
2021/10/17 01:46:16;;;;;;;6.28;4.72;;;12.00;90.30;;;;;;5035926;28;20105;-77
2021/10/17 01:48:42;;;;;;;5.25;4.57;;;12.10;91.10;;;;;;5053770;28;20463;-78
2021/10/17 01:51:08;;;;;;;5.32;4.60;;;12.10;91.30;;;;;;5053779;28;20467;-77
2021/10/17 01:53:33;;;;;;;8.95;4.63;;;12.10;91.50;;;;;;5053687;28;20104;-77
2021/10/17 01:56:00;;;;;;;8.20;4.65;;;12.10;91.80;;;;;;5035868;28;20021;-77
2021/10/17 01:58:26;;;;;;;6.43;4.90;;;12.10;91.40;;;;;;5053521;28;20132;-77
2021/10/17 02:00:53;;;;;;;6.03;4.95;;;12.00;91.60;;;;;;5053390;28;20025;-78
2021/10/17 02:03:20;;;;;;;4.95;4.45;;;11.90;91.30;;;;;;5034969;28;20083;-78
2021/10/17 02:05:45;;;;;;;5.43;4.75;;;11.80;91.10;;;;;;5053449;28;20021;-78
2021/10/17 02:08:11;;;;;;;5.55;4.75;;;11.70;91.50;;;;;;5053429;28;20387;-78
2021/10/17 02:10:37;;;;;;;6.53;4.82;;;11.70;91.70;;;;;;5035293;28;20025;-78
2021/10/17 02:13:03;;;;;;;6.18;4.72;;;11.70;91.50;;;;;;5053452;28;20053;-78
2021/10/17 02:15:29;;;;;;;7.88;5.13;;;11.70;92.10;;;;;;5035469;28;20143;-77
2021/10/17 02:17:54;;;;;;;6.90;4.90;;;11.50;92.40;;;;;;5053271;28;20047;-77
2021/10/17 02:20:20;;;;;;;6.45;4.32;;;11.40;92.80;;;;;;5053447;28;20032;-77
2021/10/17 02:22:46;;;;;;;6.03;5.18;;;11.30;92.60;;;;;;5035374;28;20068;-78
2021/10/17 02:25:12;;;;;;;6.35;4.72;;;11.20;92.70;;;;;;5053217;28;20549;-78
2021/10/17 02:27:38;;;;;;;5.55;5.05;;;11.20;92.80;;;;;;5035070;28;20048;-78
2021/10/17 02:30:06;;;;;;;9.60;4.70;;;11.10;92.70;;;;;;5052960;28;20066;-78
2021/10/17 02:32:34;;;;;;;6.20;5.00;;;11.10;92.70;;;;;;5053037;28;20104;-78
2021/10/17 02:35:02;;;;;;;8.85;4.70;;;11.10;92.80;;;;;;5052991;28;20021;-77
2021/10/17 02:37:30;;;;;;;6.80;5.15;;;11.10;92.90;;;;;;5035215;28;20036;-78
2021/10/17 02:39:57;;;;;;;5.78;4.82;;;11.00;93.20;;;;;;5052906;28;20538;-78
2021/10/17 02:42:22;;;;;;;6.07;5.47;;;11.00;93.30;;;;;;5035031;28;20074;-77
2021/10/17 02:44:48;;;;;;;11.32;5.05;;;11.00;93.40;;;;;;5053116;28;20060;-78
2021/10/17 02:47:14;;;;;;;6.93;4.72;;;11.00;93.40;;;;;;5052894;28;20036;-77
2021/10/17 02:49:39;;;;;;;4.75;4.13;;;11.00;93.00;;;;;;5052802;28;20413;-77
2021/10/17 02:52:05;;;;;;;4.88;4.25;;;11.10;93.50;;;;;;5052891;28;20053;-77
2021/10/17 02:54:31;;;;;;;4.70;4.30;;;11.00;93.50;;;;;;5052848;28;20498;-77
2021/10/17 02:56:57;;;;;;;5.15;4.43;;;10.90;93.50;;;;;;5052792;28;20025;-78
2021/10/17 02:59:22;;;;;;;6.32;5.18;;;10.80;94.40;;;;;;5052549;28;20059;-78
2021/10/17 03:01:48;;;;;;;5.72;5.20;;;10.70;94.40;;;;;;5052732;28;20033;-78
2021/10/17 03:04:14;;;;;;;6.20;5.60;;;10.60;94.60;;;;;;5052509;28;20110;-78
2021/10/17 03:06:39;;;;;;;5.80;5.00;;;10.50;94.40;;;;;;5034666;28;20021;-78
2021/10/17 03:09:05;;;;;;;7.85;4.88;;;10.50;94.40;;;;;;5051386;28;20025;-78
2021/10/17 03:11:30;;;;;;;6.93;5.10;;;10.50;94.30;;;;;;5051336;28;20021;-78
2021/10/17 03:13:56;;;;;;;7.18;4.95;;;10.50;94.40;;;;;;5052654;28;20102;-78
2021/10/17 03:16:22;;;;;;;6.97;4.88;;;10.60;94.30;;;;;;5055424;28;20346;-78
2021/10/17 03:18:48;;;;;;;5.22;4.72;;;10.60;94.40;;;;;;5056416;28;20498;-78
2021/10/17 03:21:13;;;;;;;5.78;4.72;;;10.60;94.50;;;;;;5056497;28;20094;-78
2021/10/17 03:23:39;;;;;;;8.32;5.60;;;10.60;94.60;;;;;;5056622;28;20029;-78
2021/10/17 03:26:04;;;;;;;6.63;4.75;;;10.50;94.80;;;;;;5056447;28;20032;-78
2021/10/17 03:28:30;;;;;;;7.22;4.50;;;10.60;94.00;;;;;;5038540;28;20047;-78
2021/10/17 03:30:56;;;;;;;7.18;4.90;;;10.70;94.40;;;;;;5056576;28;20052;-77
2021/10/17 03:33:22;;;;;;;5.55;4.82;;;10.70;94.20;;;;;;5056311;28;20017;-78
2021/10/17 03:35:48;;;;;;;5.88;4.53;;;10.70;93.90;;;;;;5038565;28;20495;-77
2021/10/17 03:38:14;;;;;;;7.00;4.68;;;10.80;93.90;;;;;;5056244;28;20025;-78
2021/10/17 03:40:40;;;;;;;9.82;4.70;;;10.90;93.50;;;;;;5038406;28;20037;-79
2021/10/17 03:43:05;;;;;;;5.10;4.60;;;11.00;93.30;;;;;;5056205;28;20037;-79
2021/10/17 03:45:31;;;;;;;7.18;4.47;;;11.10;93.10;;;;;;5056188;28;20024;-78
2021/10/17 03:47:58;;;;;;;5.88;4.93;;;11.10;93.00;;;;;;5056144;28;20156;-78
2021/10/17 03:50:23;;;;;;;6.22;3.92;;;11.30;92.40;;;;;;5056074;28;20025;-78
2021/10/17 03:52:49;;;;;;;4.85;4.30;;;11.40;92.10;;;;;;5038142;28;20044;-77
2021/10/17 03:55:15;;;;;;;5.40;4.70;;;11.30;92.40;;;;;;5055562;28;20036;-77
2021/10/17 03:57:41;;;;;;;5.97;4.50;;;11.40;92.50;;;;;;5054690;28;20467;-77
2021/10/17 04:00:07;;;;;;;5.72;4.28;;;11.40;92.30;;;;;;5055502;28;20056;-79
2021/10/17 04:02:34;;;;;;;4.85;4.40;;;11.30;92.50;;;;;;5055681;28;20399;-79
2021/10/17 04:05:00;;;;;;;5.18;4.38;;;11.20;92.80;;;;;;5055529;28;20032;-79
2021/10/17 04:07:26;;;;;;;5.90;5.03;;;11.10;92.60;;;;;;5055792;28;20025;-77
2021/10/17 04:09:52;;;;;;;5.03;4.53;;;11.10;92.60;;;;;;5037528;28;20028;-77
2021/10/17 04:12:17;;;;;;;5.97;4.55;;;11.10;92.70;;;;;;5055542;28;20033;-77
2021/10/17 04:14:43;;;;;;;6.45;4.72;;;11.30;92.60;;;;;;5055611;28;20021;-78
2021/10/17 04:17:09;;;;;;;5.82;4.75;;;11.20;92.70;;;;;;5054263;28;20029;-77
2021/10/17 04:19:34;;;;;;;5.47;4.60;;;11.10;93.00;;;;;;5037511;28;20387;-77
2021/10/17 04:22:00;;;;;;;5.10;4.70;;;11.10;93.20;;;;;;5055447;28;20110;-77
2021/10/17 04:24:27;;;;;;;6.07;4.90;;;11.10;93.20;;;;;;5055312;28;20506;-78
2021/10/17 04:26:53;;;;;;;9.20;5.13;;;11.10;93.30;;;;;;5054906;28;20025;-78
2021/10/17 04:29:18;;;;;;;5.88;4.55;;;11.10;93.30;;;;;;5055335;28;20021;-78
2021/10/17 04:31:44;;;;;;;6.97;5.03;;;11.00;93.50;;;;;;5037465;28;20103;-78
2021/10/17 04:34:10;;;;;;;7.90;5.25;;;10.90;93.70;;;;;;5055184;28;20376;-77
2021/10/17 04:36:36;;;;;;;7.38;5.68;;;10.80;93.80;;;;;;5055334;28;20035;-77
2021/10/17 04:39:05;;;;;;;5.80;5.20;;;10.80;94.20;;;;;;5037334;28;20025;-78
2021/10/17 04:41:32;;;;;;;8.45;5.40;;;10.70;94.50;;;;;;5037161;28;20029;-78
2021/10/17 04:43:58;;;;;;;7.47;5.78;;;10.70;94.60;;;;;;5055040;28;20033;-78
2021/10/17 04:46:24;;;;;;;6.05;5.47;;;11.00;94.20;;;;;;5055149;28;20507;-78
2021/10/17 04:48:49;;;;;;;6.03;5.35;;;11.20;93.90;;;;;;5055067;28;20111;-79
2021/10/17 04:51:15;;;;;;;5.82;5.32;;;11.20;93.90;;;;;;5055003;28;20458;-79
2021/10/17 04:53:41;;;;;;;8.73;5.18;;;11.20;93.20;;;;;;5054925;28;20445;-78
2021/10/17 04:56:06;;;;;;;5.55;5.00;;;11.20;93.20;;;;;;5054482;28;20036;-78
2021/10/17 04:58:32;;;;;;;5.78;5.18;;;11.20;93.50;;;;;;5054716;28;20047;-78
2021/10/17 05:00:58;;;;;;;7.43;5.03;;;11.30;93.50;;;;;;5054829;28;20021;-78
2021/10/17 05:03:24;;;;;;;5.82;5.20;;;11.30;93.90;;;;;;5054779;28;20118;-78
2021/10/17 05:05:49;;;;;;;7.63;5.65;;;11.30;93.20;;;;;;5036755;28;20107;-78
2021/10/17 05:08:15;;;;;;;6.70;5.55;;;11.40;93.50;;;;;;5036924;28;20477;-79
2021/10/17 05:10:41;;;;;;;6.95;5.60;;;11.40;93.30;;;;;;5054814;28;20052;-78
2021/10/17 05:13:07;;;;;;;8.68;5.95;;;11.40;93.20;;;;;;5054542;28;20024;-79
2021/10/17 05:15:33;;;;;;;6.80;5.68;;;11.40;93.10;;;;;;5054514;28;20475;-78
2021/10/17 05:17:59;;;;;;;6.70;5.60;;;11.40;92.70;;;;;;5054378;28;20028;-78
2021/10/17 05:20:24;;;;;;;7.53;6.05;;;11.40;92.80;;;;;;5054437;28;20017;-79
2021/10/17 05:22:50;;;;;;;7.55;5.22;;;11.30;93.00;;;;;;5054117;28;20033;-78
2021/10/17 05:25:15;;;;;;;6.90;5.88;;;11.20;93.10;;;;;;5036406;28;20032;-79
2021/10/17 05:27:41;;;;;;;6.57;5.88;;;11.20;93.40;;;;;;5054270;28;20017;-79
2021/10/17 05:30:07;;;;;;;6.80;6.05;;;11.10;94.00;;;;;;5035993;28;20025;-79
2021/10/17 05:32:33;;;;;;;7.53;5.82;;;11.10;94.00;;;;;;5036314;28;20029;-79
2021/10/17 05:34:59;;;;;;;7.25;6.18;;;11.10;93.90;;;;;;5054124;28;20025;-78
2021/10/17 05:37:25;;;;;;;9.43;6.50;;;11.10;94.10;;;;;;5053563;28;20032;-78
2021/10/17 05:39:50;;;;;;;6.97;6.25;;;11.10;94.00;;;;;;5053730;28;20486;-79
2021/10/17 05:42:16;;;;;;;8.50;5.90;;;11.10;94.30;;;;;;5036138;28;20029;-78
2021/10/17 05:44:42;;;;;;;7.18;6.45;;;11.10;94.60;;;;;;5053901;28;20021;-78
2021/10/17 05:47:07;;;;;;;6.55;5.82;;;11.10;94.50;;;;;;5053852;28;20027;-79
2021/10/17 05:49:33;;;;;;;10.43;6.57;;;11.20;93.90;;;;;;5053434;28;20036;-80
2021/10/17 05:51:59;;;;;;;8.70;5.93;;;11.40;94.00;;;;;;5053840;28;20021;-81
2021/10/17 05:54:24;;;;;;;9.80;6.60;;;11.50;93.80;;;;;;5052587;28;20029;-80
2021/10/17 05:56:50;;;;;;;7.05;6.13;;;11.50;93.70;;;;;;5053762;28;20488;-81
2021/10/17 05:59:17;;;;;;;10.30;6.80;;;11.70;93.70;;;;;;5035757;28;20522;-80
2021/10/17 06:01:43;;;;;;;7.32;6.63;;;11.80;93.40;;;;;;5053612;28;20025;-78
2021/10/17 06:04:10;;;;;;;8.90;6.20;;;11.90;93.10;;;;;;5052400;28;20111;-80
2021/10/17 06:06:40;;;;;;;8.32;6.07;;;12.00;93.00;;;;;;5053410;28;20540;-79
2021/10/17 06:09:06;;;;;;;8.13;6.22;;;12.10;92.80;;;;;;5053489;28;20021;-78
2021/10/17 06:11:32;;;;;;;7.72;6.07;;;12.20;92.50;;;;;;5053590;28;20368;-78
2021/10/17 06:13:58;;;;;;;9.57;6.40;;;12.30;92.20;;;;;;5053387;28;20020;-80
2021/10/17 06:16:23;;;;;;;8.93;6.25;;;12.30;92.20;;;;;;5053411;28;20502;-79
2021/10/17 06:18:49;;;;;;;8.75;6.40;;;12.30;92.00;;;;;;5053392;28;20033;-79
2021/10/17 06:21:15;;;;;;;7.20;6.07;;;12.40;91.90;;;;;;5053069;28;20479;-79
2021/10/17 06:23:40;;;;;;;11.18;5.90;;;12.50;91.90;;;;;;5053498;28;20043;-79
2021/10/17 06:26:06;;;;;;;7.93;6.00;;;12.50;91.70;;;;;;5053307;28;20468;-80
2021/10/17 06:28:32;;;;;;;10.63;6.07;;;12.60;91.30;;;;;;5053389;28;20538;-79
2021/10/17 06:30:57;;;;;;;8.25;6.00;;;12.60;91.30;;;;;;5035372;28;20079;-79
2021/10/17 06:33:23;;;;;;;7.28;6.28;;;12.70;90.80;;;;;;5053351;28;20112;-79
2021/10/17 06:35:49;;;;;;;9.00;5.78;;;12.80;90.70;;;;;;5053104;28;20043;-79
2021/10/17 06:38:15;;;;;;;6.28;5.45;;;12.90;90.70;;;;;;5052893;28;20125;-78
2021/10/17 06:40:41;;;;;;;7.45;5.82;;;12.90;90.30;;;;;;5053014;28;20477;-78
2021/10/17 06:43:06;;;;;;;7.72;5.40;;;13.00;90.30;;;;;;5053087;28;20033;-78
2021/10/17 06:45:32;;;;;;;7.78;5.35;;;13.10;89.80;;;;;;5052738;28;20017;-77
2021/10/17 06:47:58;;;;;;;6.15;5.50;;;13.10;90.20;;;;;;5052859;28;20056;-80
2021/10/17 06:50:23;;;;;;;5.78;5.20;;;13.10;90.00;;;;;;5052579;28;20489;-80
2021/10/17 06:52:50;;;;;;;7.47;5.75;;;13.20;89.20;;;;;;5052592;28;20586;-80
2021/10/17 06:55:16;;;;;;;6.43;5.72;;;13.30;88.60;;;;;;5052998;28;20036;-78
2021/10/17 06:57:44;;;;;;;7.68;5.70;;;13.40;88.70;;;;;;5052509;28;20040;-79
2021/10/17 07:00:10;;;;;;;5.68;5.07;;;13.50;88.40;;;;;;5035466;28;20475;-84
2021/10/17 07:02:35;;;;;;;6.25;5.18;;;13.60;88.40;;;;;;5052512;28;20037;-83
2021/10/17 07:05:01;;;;;;;5.53;5.00;;;13.60;88.00;;;;;;5053678;28;20028;-80
2021/10/17 07:07:27;;;;;;;7.22;5.28;;;13.70;86.60;;;;;;5052908;28;20024;-81
2021/10/17 07:09:53;;;;;;;8.38;5.18;;;13.80;87.20;;;;;;5035386;28;20467;-81
2021/10/17 07:12:18;;;;;;;9.90;5.50;;;13.80;87.60;;;;;;5052944;28;20021;-82
2021/10/17 07:14:44;;;;;;;6.80;5.25;;;13.90;86.90;;;;;;5035061;28;20024;-81
2021/10/17 07:17:09;;;;;;;5.75;5.20;;;13.90;86.90;;;;;;5052805;28;20043;-81
2021/10/17 07:19:35;;;;;;;6.90;5.38;;;14.00;85.60;;;;;;5052638;28;20025;-82
2021/10/17 07:22:01;;;;;;;5.68;5.15;;;14.00;86.00;;;;;;5052773;28;20071;-80
2021/10/17 07:24:27;;;;;;;8.68;5.15;;;14.10;86.30;;;;;;5054254;28;20120;-88
2021/10/17 07:26:52;;;;;;;5.57;4.78;;;14.10;85.10;;;;;;5055211;28;20021;-83
2021/10/17 07:29:18;;;;;;;6.68;5.03;;;14.20;85.20;;;;;;5053890;28;20510;-83
2021/10/17 07:31:44;;;;;;;6.07;4.95;;;14.30;84.40;;;;;;5035203;28;20025;-84
2021/10/17 07:34:10;;;;;;;4.25;3.85;;;14.30;85.30;;;;;;5053425;28;20033;-85
2021/10/17 07:36:35;;;;;;;5.82;4.55;;;14.40;85.00;;;;;;5053635;28;20367;-88
2021/10/17 07:39:02;;;;;;;5.25;4.75;;;14.50;83.30;;;;;;5052894;28;20464;-79
2021/10/17 07:41:28;;;;;;;5.78;4.78;;;14.50;83.60;;;;;;5034753;28;20037;-81
2021/10/17 07:43:53;;;;;;;6.03;4.38;;;14.60;83.70;;;;;;5059746;28;20096;-83
2021/10/17 07:46:19;;;;;;;5.22;4.65;;;14.60;83.30;;;;;;5052598;28;20077;-88
2021/10/17 07:48:45;;;;;;;5.70;4.22;;;14.70;80.50;;;;;;5053400;28;20115;-83
2021/10/17 07:51:10;;;;;;;4.88;4.38;;;14.80;80.60;;;;;;5034342;28;20035;-84
2021/10/17 07:53:36;;;;;;;5.80;4.47;;;14.90;81.70;;;;;;5034705;28;20021;-84
2021/10/17 07:56:04;;;;;;;5.07;4.43;;;15.00;80.50;;;;;;5034471;28;20032;-78
2021/10/17 07:58:31;;;;;;;6.40;4.45;;;15.00;80.60;;;;;;5031617;28;20496;-79
2021/10/17 08:00:57;;;;;;;6.22;4.13;;;15.20;80.20;;;;;;5032753;28;20423;-79
2021/10/17 08:03:22;;;;;;;7.55;4.07;;;15.20;78.90;;;;;;5035773;28;20099;-78
2021/10/17 08:05:48;;;;;;;4.25;3.63;;;15.20;78.50;;;;;;5036025;28;20018;-78
2021/10/17 08:08:14;;;;;;;6.00;4.20;;;15.30;79.40;;;;;;5035788;28;20086;-80
2021/10/17 08:10:40;;;;;;;5.72;3.58;;;15.30;78.50;;;;;;5035880;28;20053;-76
2021/10/17 08:13:07;;;;;;;4.20;3.60;;;15.40;78.60;;;;;;5035840;28;20021;-76
2021/10/17 08:15:33;;;;;;;5.70;4.18;;;15.50;78.30;;;;;;5035637;28;20029;-77
2021/10/17 08:17:59;;;;;;;4.45;3.53;;;15.50;77.10;;;;;;5036232;28;20079;-77
2021/10/17 08:20:24;;;;;;;3.85;3.55;;;15.60;76.90;;;;;;5035750;28;20022;-77
2021/10/17 08:22:50;;;;;;;4.13;3.72;;;15.70;76.50;;;;;;5035515;28;20410;-77
2021/10/17 08:25:16;;;;;;;6.75;3.80;;;15.70;74.40;;;;;;5035301;28;20028;-79
2021/10/17 08:27:42;;;;;;;3.92;3.50;;;15.80;74.80;;;;;;5035475;28;20021;-76
2021/10/17 08:30:11;;;;;;;4.05;3.65;;;15.90;75.10;;;;;;5035091;28;20021;-76
2021/10/17 08:32:37;;;;;;;4.07;3.63;;;15.90;75.00;;;;;;5035452;28;20044;-75
2021/10/17 08:35:03;;;;;;;8.55;3.30;;;15.90;74.40;;;;;;5035348;28;20025;-75
2021/10/17 08:37:30;;;;;;;5.20;3.58;;;16.00;75.10;;;;;;5035438;28;20160;-75
2021/10/17 08:39:56;;;;;;;5.35;3.78;;;16.00;74.60;;;;;;5035099;28;20022;-74
2021/10/17 08:42:22;;;;;;;4.72;3.50;;;16.10;74.70;;;;;;5033814;28;20376;-78
2021/10/17 08:44:55;;;;;;;4.22;3.58;;;16.10;75.20;;;;;;5035306;28;20139;-80
2021/10/17 08:47:26;;;;;;;7.30;3.22;;;16.10;74.80;;;;;;5035360;28;20025;-76
2021/10/17 08:49:53;;;;;;;3.65;3.33;;;16.20;75.60;;;;;;5034898;28;20018;-76
2021/10/17 08:52:18;;;;;;;3.75;3.40;;;16.20;74.90;;;;;;5033485;28;20025;-77
2021/10/17 08:54:44;;;;;;;3.65;3.30;;;16.30;74.00;;;;;;5034759;28;20482;-77
2021/10/17 08:57:10;;;;;;;3.38;3.03;;;16.40;73.80;;;;;;5035065;28;20029;-76
2021/10/17 08:59:36;;;;;;;3.55;3.25;;;16.50;74.10;;;;;;5050124;28;20048;-75
2021/10/17 09:02:13;;;;;;;4.60;2.95;;;16.50;73.20;;;;;;5054821;28;20052;-76
2021/10/17 09:04:39;;;;;;;3.78;2.90;;;16.50;75.00;;;;;;5036885;28;20021;-77
2021/10/17 09:07:20;;;;;;;3.28;2.97;;;16.60;72.90;;;;;;5054825;28;20060;-83
2021/10/17 09:10:12;;;;;;;5.38;3.10;;;16.70;71.60;;;;;;5054716;28;20029;-77
2021/10/17 09:12:40;;;;;;;3.40;3.10;;;16.80;71.70;;;;;;5055051;28;20483;-77
2021/10/17 09:15:23;;;;;;;4.22;3.00;;;16.90;71.80;;;;;;5037337;28;20479;-77
2021/10/17 09:18:08;;;;;;;6.93;3.42;;;16.90;71.60;;;;;;5036777;28;20024;-78
2021/10/17 09:20:56;;;;;;;3.85;3.25;;;17.00;73.10;;;;;;5036486;28;20074;-77
2021/10/17 09:23:22;;;;;;;3.03;2.78;;;17.20;71.10;;;;;;5054218;28;20526;-78
2021/10/17 09:25:49;;;;;;;4.10;3.60;;;17.20;70.60;;;;;;5054435;28;20032;-77
2021/10/17 09:28:25;;;;;;;4.68;2.90;;;17.30;71.70;;;;;;5036385;28;20017;-78
2021/10/17 09:30:59;;;;;;;3.33;2.88;;;17.30;71.00;;;;;;5054237;28;20021;-77
2021/10/17 09:33:25;;;;;;;3.80;3.05;;;17.30;71.20;;;;;;5036266;28;20025;-77
2021/10/17 09:35:51;;;;;;;3.45;2.83;;;17.40;69.80;;;;;;5054127;28;20488;-77
2021/10/17 09:38:19;;;;;;;3.10;2.80;;;17.40;70.20;;;;;;5054159;28;20055;-78
2021/10/17 09:40:46;;;;;;;3.80;2.47;;;17.40;69.20;;;;;;5054094;28;20017;-78
2021/10/17 09:43:33;;;;;;;3.13;2.80;;;17.40;68.90;;;;;;5036110;28;20062;-76
2021/10/17 09:46:12;;;;;;;4.05;2.60;;;17.60;69.50;;;;;;5053889;28;20538;-78
2021/10/17 09:48:38;;;;;;;3.30;2.88;;;17.70;68.90;;;;;;5052574;28;20021;-78
2021/10/17 09:51:06;;;;;;;3.70;3.00;;;17.80;70.40;;;;;;5053580;28;20025;-77
2021/10/17 09:53:48;;;;;;;3.28;2.97;;;17.90;69.40;;;;;;5053273;28;20020;-77
2021/10/17 09:56:33;;;;;;;3.83;2.67;;;18.00;68.30;;;;;;5053369;28;20032;-75
2021/10/17 09:59:10;;;;;;;4.32;3.22;;;18.00;68.60;;;;;;5035375;28;20291;-75
2021/10/17 10:01:38;;;;;;;3.33;2.85;;;18.10;68.10;;;;;;5053244;28;20055;-78
2021/10/17 10:04:06;;;;;;;3.03;2.67;;;18.20;68.50;;;;;;5053065;28;20037;-75
2021/10/17 10:06:33;;;;;;;3.28;2.67;;;18.30;66.70;;;;;;5053385;28;20112;-76
2021/10/17 10:09:05;;;;;;;3.92;2.72;;;18.30;65.80;;;;;;5053108;28;20147;-76
2021/10/17 10:11:31;;;;;;;;;;;18.40;67.20;;;;;;5053799;28;20044;-76
2021/10/17 10:14:04;;;;;;;4.18;2.95;;;18.40;65.00;;;;;;5053477;28;20343;-77
2021/10/17 10:16:30;;;;;;;4.13;2.30;;;18.50;65.20;;;;;;5053350;28;20550;-77
2021/10/17 10:19:08;;;;;;;4.00;2.60;;;18.60;66.10;;;;;;5042474;28;20033;-77
2021/10/17 10:21:36;;;;;;;4.15;2.80;;;18.60;65.60;;;;;;5042704;28;20510;-76
2021/10/17 10:24:04;;;;;;;2.55;2.35;;;18.70;65.00;;;;;;5054467;28;20103;-81
2021/10/17 10:26:32;;;;;;;2.40;2.20;;;18.80;64.10;;;;;;5053276;28;20070;-80
2021/10/17 10:28:59;;;;;;;5.18;2.90;;;18.90;64.60;;;;;;5035049;28;20083;-79
2021/10/17 10:31:45;;;;;;;2.97;2.65;;;18.90;64.10;;;;;;5053307;28;20472;-79
2021/10/17 10:34:32;;;;;;;3.65;2.20;;;18.90;64.60;;;;;;5035166;28;20033;-78
2021/10/17 10:37:13;;;;;;;2.67;2.47;;;18.90;65.20;;;;;;5039767;28;20049;-79
2021/10/17 10:40:04;;;;;;;2.53;2.30;;;18.90;65.90;;;;;;5052670;28;20029;-78
2021/10/17 10:42:35;;;;;;;3.67;2.78;;;19.00;64.70;;;;;;5051293;28;20082;-78
2021/10/17 10:45:19;;;;;;;3.47;2.42;;;19.10;66.20;;;;;;5052991;28;20028;-78
2021/10/17 10:47:47;;;;;;;3.08;2.70;;;19.20;64.00;;;;;;5053177;28;20039;-77
2021/10/17 10:50:13;;;;;;;2.53;2.33;;;19.30;63.00;;;;;;5035110;28;20047;-78
2021/10/17 10:52:43;;;;;;;2.80;2.25;;;19.40;65.00;;;;;;5034969;28;20368;-77
2021/10/17 10:55:11;;;;;;;2.17;2.00;;;19.70;62.50;;;;;;5052692;28;20029;-77
2021/10/17 10:57:42;;;;;;;2.67;2.40;;;19.80;60.20;;;;;;5052734;28;20017;-77
2021/10/17 11:00:16;;;;;;;3.20;2.60;;;19.80;61.10;;;;;;5052543;28;20522;-76
2021/10/17 11:03:13;;;;;;;3.33;2.60;;;19.90;61.50;;;;;;5052617;28;20078;-77
2021/10/17 11:05:39;;;;;;;6.80;2.28;;;20.00;62.20;;;;;;5052821;28;20013;-79
2021/10/17 11:08:13;;;;;;;3.50;2.33;;;20.00;61.00;;;;;;5052829;28;20029;-77
2021/10/17 11:10:40;;;;;;;2.92;2.45;;;20.00;60.10;;;;;;5052688;28;20025;-77
2021/10/17 11:13:08;;;;;;;2.13;2.00;;;20.10;59.60;;;;;;5034865;28;20083;-78
2021/10/17 11:15:38;;;;;;;2.75;2.20;;;20.20;60.40;;;;;;5052817;28;20017;-78
2021/10/17 11:18:05;;;;;;;3.25;2.25;;;20.30;59.60;;;;;;5052583;28;20057;-79
2021/10/17 11:20:57;;;;;;;4.53;2.22;;;20.30;58.10;;;;;;5034739;28;20021;-79
2021/10/17 11:23:25;;;;;;;3.72;2.20;;;20.30;59.20;;;;;;5048757;28;20084;-77
2021/10/17 11:26:09;;;;;;;3.42;2.28;;;20.40;59.00;;;;;;5052491;28;20079;-76
2021/10/17 11:28:37;;;;;;;2.60;2.40;;;20.50;60.10;;;;;;5052503;28;20059;-76
2021/10/17 11:31:11;;;;;;;2.25;2.08;;;20.50;57.60;;;;;;5052472;28;20045;-77
2021/10/17 11:33:41;;;;;;;2.90;2.58;;;20.30;58.80;;;;;;5052493;28;20147;-77
2021/10/17 11:36:08;;;;;;;2.72;2.53;;;20.50;59.20;;;;;;5052753;28;20041;-79
2021/10/17 11:38:34;;;;;;;2.70;2.50;;;20.70;58.70;;;;;;5056173;28;20028;-77
2021/10/17 11:41:08;;;;;;;2.67;2.47;;;20.80;57.70;;;;;;5038369;28;20029;-77
2021/10/17 11:43:48;;;;;;;2.30;2.10;;;20.90;57.60;;;;;;5056179;28;20033;-78
2021/10/17 11:46:24;;;;;;;2.40;2.20;;;21.00;57.70;;;;;;5056111;28;20497;-77
2021/10/17 11:48:58;;;;;;;2.97;2.38;;;21.20;59.80;;;;;;5056051;28;20059;-77
2021/10/17 11:51:24;;;;;;;2.55;2.35;;;21.30;57.70;;;;;;5056016;28;20024;-76
2021/10/17 11:53:58;;;;;;;2.28;1.73;;;21.60;58.20;;;;;;5056050;28;20166;-78
2021/10/17 11:56:24;;;;;;;4.18;3.50;;;21.60;57.40;;;;;;5055945;28;20025;-77
2021/10/17 11:58:50;;;;;;;3.22;2.50;;;21.70;57.70;;;;;;5055414;28;20048;-78
2021/10/17 12:01:16;;;;;;;2.05;1.95;;;22.00;56.80;;;;;;5055464;28;20483;-81
2021/10/17 12:03:53;;;;;;;3.90;2.60;;;23.20;53.60;;;;;;5055273;28;20393;-78
2021/10/17 12:06:20;;;;;;;2.50;2.25;;;26.40;51.80;;;;;;5055409;28;20494;-76
2021/10/17 12:09:02;;;;;;;2.80;2.60;;;28.60;49.10;;;;;;5054277;28;20467;-78
2021/10/17 12:11:29;;;;;;;4.22;2.33;;;30.00;46.60;;;;;;5055634;28;20017;-78
2021/10/17 12:13:57;;;;;;;3.15;2.40;;;30.80;45.30;;;;;;5055078;28;20119;-76
2021/10/17 12:16:29;;;;;;;3.42;2.30;;;30.30;44.90;;;;;;5055548;28;20055;-77
2021/10/17 12:19:02;;;;;;;2.80;2.30;;;29.70;45.70;;;;;;5055430;28;20017;-76
2021/10/17 12:21:32;;;;;;;5.18;2.40;;;29.60;46.10;;;;;;5055425;28;20029;-77
2021/10/17 12:23:58;;;;;;;3.65;2.30;;;30.70;45.40;;;;;;5055305;28;20029;-76
2021/10/17 12:26:26;;;;;;;2.95;2.67;;;29.70;46.30;;;;;;5037600;28;20021;-77
2021/10/17 12:29:16;;;;;;;2.72;2.40;;;28.00;48.60;;;;;;5055353;28;20032;-78
2021/10/17 12:31:50;;;;;;;2.97;2.33;;;27.60;49.50;;;;;;5054985;28;20017;-75
2021/10/17 12:34:35;;;;;;;12.35;3.13;;;27.90;48.40;;;;;;5036872;28;20045;-76
2021/10/17 12:37:00;;;;;;;3.88;2.22;;;27.60;51.00;;;;;;5055021;28;20033;-77
2021/10/17 12:39:26;;;;;;;5.30;2.50;;;29.00;47.50;;;;;;5055000;28;20017;-75
2021/10/17 12:41:58;;;;;;;5.80;2.70;;;28.80;47.70;;;;;;5055038;28;20055;-78
2021/10/17 12:44:24;;;;;;;3.15;2.35;;;28.00;50.70;;;;;;5037233;28;20044;-76
2021/10/17 12:47:04;;;;;;;2.90;2.63;;;27.70;51.40;;;;;;5054632;28;20142;-76
2021/10/17 12:49:41;;;;;;;5.45;3.33;;;27.20;52.00;;;;;;5037155;28;20365;-76
2021/10/17 12:52:10;;;;;;;14.07;3.17;;;27.00;52.50;;;;;;5054913;28;20035;-76